TimeEST,TemperatureF,Dew PointF,Humidity,Sea Level PressureIn,VisibilityMPH,Wind Direction,Wind SpeedMPH,Gust SpeedMPH,PrecipitationIn,Events,Conditions,WindDirDegrees,DateUTC
12:15 AM,35.6,32.0,87,30.24,5.0,East,3.5,-,N/A,,Overcast,100,2013-02-23 05:15:00
12:35 AM,35.6,32.0,87,30.24,4.0,East,3.5,-,N/A,,Overcast,80,2013-02-23 05:35:00
12:55 AM,35.6,33.8,93,30.23,2.5,ENE,3.5,-,N/A,,Overcast,70,2013-02-23 05:55:00
1:15 AM,33.8,33.8,100,30.22,2.5,ENE,3.5,-,N/A,,Overcast,70,2013-02-23 06:15:00
1:35 AM,35.6,33.8,93,30.21,2.5,East,4.6,-,N/A,,Overcast,80,2013-02-23 06:35:00
1:55 AM,35.6,33.8,93,30.20,2.0,ENE,3.5,-,N/A,,Overcast,70,2013-02-23 06:55:00
2:15 AM,35.6,33.8,93,30.18,1.8,ENE,4.6,-,N/A,,Overcast,70,2013-02-23 07:15:00
2:35 AM,35.6,33.8,93,30.18,1.8,ENE,3.5,-,N/A,,Overcast,60,2013-02-23 07:35:00
2:55 AM,35.6,33.8,93,30.17,1.5,Calm,Calm,-,N/A,,Overcast,0,2013-02-23 07:55:00
3:15 AM,35.6,33.8,93,30.16,1.5,NE,3.5,-,N/A,,Overcast,50,2013-02-23 08:15:00
3:35 AM,35.6,33.8,93,30.15,1.2,ENE,4.6,-,N/A,,Overcast,70,2013-02-23 08:35:00
3:55 AM,35.6,33.8,93,30.15,1.5,ENE,3.5,-,N/A,,Overcast,70,2013-02-23 08:55:00
4:15 AM,35.6,35.6,100,30.14,1.2,ENE,4.6,-,N/A,,Overcast,70,2013-02-23 09:15:00
4:35 AM,35.6,35.6,100,30.13,1.2,ENE,4.6,-,N/A,,Overcast,70,2013-02-23 09:35:00
4:55 AM,35.6,35.6,100,30.12,1.2,ENE,4.6,-,N/A,,Overcast,70,2013-02-23 09:55:00
5:15 AM,35.6,35.6,100,30.11,1.5,ENE,4.6,-,N/A,,Overcast,60,2013-02-23 10:15:00
5:35 AM,35.6,35.6,100,30.12,1.5,ENE,3.5,-,N/A,,Overcast,60,2013-02-23 10:35:00
5:55 AM,35.6,35.6,100,30.11,1.5,ENE,4.6,-,N/A,,Overcast,60,2013-02-23 10:55:00
6:15 AM,35.6,35.6,100,30.11,1.2,ENE,3.5,-,N/A,,Overcast,60,2013-02-23 11:15:00
6:35 AM,35.6,35.6,100,30.10,1.2,ENE,3.5,-,N/A,,Overcast,60,2013-02-23 11:35:00
6:55 AM,37.4,35.6,93,30.10,1.0,ENE,3.5,-,N/A,,Overcast,60,2013-02-23 11:55:00
7:15 AM,37.4,35.6,93,30.09,1.0,ENE,3.5,-,N/A,,Overcast,60,2013-02-23 12:15:00
7:35 AM,37.4,37.4,100,30.09,0.5,ENE,3.5,-,N/A,,Overcast,60,2013-02-23 12:35:00
7:55 AM,37.4,37.4,100,30.09,0.8,ENE,3.5,-,N/A,,Overcast,60,2013-02-23 12:55:00
8:15 AM,39.2,37.4,93,30.08,1.0,East,3.5,-,N/A,,Overcast,90,2013-02-23 13:15:00
8:35 AM,41.0,39.2,93,30.08,0.8,East,3.5,-,N/A,,Overcast,80,2013-02-23 13:35:00
8:55 AM,41.0,39.2,93,30.06,1.2,ENE,3.5,-,N/A,,Overcast,70,2013-02-23 13:55:00
9:15 AM,41.0,39.2,93,30.06,1.2,East,3.5,-,N/A,,Overcast,80,2013-02-23 14:15:00
9:35 AM,41.0,41.0,100,30.05,1.2,East,3.5,-,N/A,,Overcast,80,2013-02-23 14:35:00
9:55 AM,42.8,41.0,93,30.03,1.8,East,5.8,-,0.01,,Overcast,90,2013-02-23 14:55:00
10:15 AM,42.8,41.0,93,30.03,2.0,East,4.6,-,N/A,,Overcast,80,2013-02-23 15:15:00
10:35 AM,42.8,42.8,100,30.03,2.0,East,4.6,-,N/A,,Overcast,90,2013-02-23 15:35:00
10:55 AM,42.8,42.8,100,30.01,1.8,ENE,4.6,-,N/A,,Overcast,70,2013-02-23 15:55:00
11:15 AM,42.8,42.8,100,30.00,1.8,ENE,4.6,-,N/A,,Overcast,70,2013-02-23 16:15:00
11:35 AM,42.8,42.8,100,30.01,1.2,ENE,4.6,-,N/A,,Overcast,60,2013-02-23 16:35:00
11:55 AM,44.6,42.8,93,29.99,1.2,East,4.6,-,N/A,,Overcast,80,2013-02-23 16:55:00
12:15 PM,44.6,42.8,93,29.98,1.5,East,6.9,-,N/A,,Overcast,80,2013-02-23 17:15:00
12:35 PM,44.6,44.6,100,29.96,2.0,East,6.9,-,N/A,,Overcast,90,2013-02-23 17:35:00
1:15 PM,46.4,44.6,93,29.94,2.5,NE,4.6,-,N/A,,Overcast,50,2013-02-23 18:15:00
1:35 PM,44.6,44.6,100,29.94,2.5,NNE,3.5,-,N/A,,Overcast,20,2013-02-23 18:35:00
1:55 PM,46.4,44.6,93,29.93,1.5,NE,3.5,-,N/A,,Overcast,50,2013-02-23 18:55:00
2:15 PM,46.4,44.6,93,29.92,1.2,ENE,4.6,-,0.01,,Overcast,60,2013-02-23 19:15:00
2:35 PM,46.4,44.6,93,29.91,1.5,NNE,4.6,-,0.01,,Overcast,30,2013-02-23 19:35:00
2:55 PM,46.4,44.6,93,29.91,2.0,NNE,4.6,-,0.01,,Overcast,30,2013-02-23 19:55:00
3:15 PM,44.6,44.6,100,29.91,1.8,NNE,4.6,-,N/A,,Overcast,20,2013-02-23 20:15:00
3:35 PM,44.6,42.8,93,29.90,2.5,NNE,6.9,-,N/A,,Overcast,30,2013-02-23 20:35:00
3:55 PM,44.6,42.8,93,29.89,3.0,NNE,6.9,-,N/A,,Overcast,30,2013-02-23 20:55:00
4:15 PM,44.6,42.8,93,29.89,3.0,NE,5.8,-,N/A,,Overcast,40,2013-02-23 21:15:00
4:35 PM,44.6,42.8,93,29.88,3.0,NE,6.9,-,N/A,,Overcast,50,2013-02-23 21:35:00
4:55 PM,44.6,42.8,93,29.87,2.0,NNE,5.8,-,N/A,,Overcast,30,2013-02-23 21:55:00
5:15 PM,44.6,42.8,93,29.86,2.0,ENE,8.1,-,0.01,,Overcast,60,2013-02-23 22:15:00
5:35 PM,44.6,42.8,93,29.85,5.0,NE,6.9,-,0.01,,Overcast,50,2013-02-23 22:35:00
5:55 PM,42.8,42.8,100,29.86,7.0,NE,9.2,-,0.01,,Overcast,50,2013-02-23 22:55:00
6:15 PM,42.8,42.8,100,29.87,7.0,ENE,6.9,-,N/A,,Overcast,60,2013-02-23 23:15:00
6:35 PM,42.8,41.0,93,29.87,3.0,NE,5.8,-,N/A,,Overcast,50,2013-02-23 23:35:00
6:55 PM,42.8,42.8,100,29.85,2.0,ENE,9.2,-,N/A,,Overcast,60,2013-02-23 23:55:00
7:15 PM,42.8,41.0,93,29.85,4.0,ENE,13.8,20.7,N/A,,Overcast,70,2013-02-24 00:15:00
7:35 PM,42.8,41.0,93,29.86,7.0,ENE,10.4,17.3,N/A,,Overcast,60,2013-02-24 00:35:00
7:55 PM,41.0,39.2,93,29.86,7.0,ENE,10.4,-,N/A,,Overcast,60,2013-02-24 00:55:00
8:15 PM,41.0,39.2,93,29.85,4.0,NE,6.9,-,N/A,,Overcast,50,2013-02-24 01:15:00
8:35 PM,41.0,39.2,93,29.84,3.0,ENE,8.1,-,N/A,,Overcast,60,2013-02-24 01:35:00
8:55 PM,41.0,39.2,93,29.84,4.0,ENE,8.1,-,N/A,,Overcast,70,2013-02-24 01:55:00
9:15 PM,41.0,39.2,93,29.83,7.0,NE,6.9,-,0.01,,Overcast,50,2013-02-24 02:15:00
9:35 PM,41.0,39.2,93,29.83,4.0,ENE,4.6,-,0.01,,Overcast,60,2013-02-24 02:35:00
9:55 PM,41.0,39.2,93,29.83,3.0,Calm,Calm,-,0.01,,Overcast,0,2013-02-24 02:55:00
10:15 PM,41.0,39.2,93,29.83,2.5,North,3.5,-,N/A,,Overcast,10,2013-02-24 03:15:00
10:35 PM,41.0,37.4,87,29.82,3.0,NNE,4.6,-,N/A,,Overcast,30,2013-02-24 03:35:00
10:55 PM,39.2,37.4,93,29.81,4.0,NNE,5.8,-,N/A,,Overcast,20,2013-02-24 03:55:00
11:15 PM,39.2,37.4,93,29.80,5.0,NNE,3.5,-,N/A,,Overcast,30,2013-02-24 04:15:00
11:35 PM,39.2,37.4,93,29.80,5.0,NNE,3.5,-,N/A,,Overcast,20,2013-02-24 04:35:00
11:55 PM,39.2,37.4,93,29.81,10.0,NNE,3.5,-,N/A,,Overcast,20,2013-02-24 04:55:00